Gulfport, MS (39501)

11:23 AM CDT on August 27, 2014 (GMT -0500)
Greenbriar | Change Station
CLOSE
Current Station
Personal Weather Station
Location: Gulfport, MS
Elevation: 20 ft
Nearby Weather Stations

Elev 20 ft 30.40 °N, 89.04 °W | Updated 6 minutes ago

Partly Cloudy
Partly Cloudy
86.3 °F
Feels Like 96 °F
N
0.0
Wind Variable Wind from ESE

Today
High -- | Low -- °F
--% Chance of Precip.
Yesterday
High -- | Low -- °F
Precip. -- in
6:30 AM 7:24 PM
Waxing Crescent, 4% visible
Pressure 30.04 in
Visibility 10.0 miles
Clouds Few 2500 ft
Heat Index 96 °F
Dew Point 76 °F
Humidity 71%
Rainfall 0.00 in
Snow Depth Not available.
UV 9 out of 12
Pollen 7.60 out of 12
Ozone Good
PM2.5 Good
Flu Activity Not available.
METAR KGPT 271553Z 08007KT 10SM FEW025 31/22 A3004 RMK AO2 SLP171 T03110217

More Conditions Fewer Conditions

Pressure 30.04 in
Visibility 10.0 miles
Clouds Few 2500 ft
Heat Index 96 °F
Dew Point 76 °F
Humidity 71%
Rainfall 0.00 in
Snow Depth Not available.
UV 9 out of 12
Pollen 7.60 out of 12
Ozone Good
PM2.5 Good
Flu Activity Not available.
METAR KGPT 271553Z 08007KT 10SM FEW025 31/22 A3004 RMK AO2 SLP171 T03110217

More Conditions Fewer Conditions

10-Day Weather Forecast

Almanac

Astronomy

Aug. 27, 2014 Rise Set
Actual Time 6:30 AM CDT 7:24 PM CDT
Civil Twilight 6:05 AM CDT 7:49 PM CDT
Nautical Twilight 5:36 AM CDT 8:18 PM CDT
Astronomical Twilight 5:06 AM CDT 8:48 PM CDT
Moon 8:15 AM CDT 8:30 PM CDT
Length of Visible Light 13h 44m
Length of Day
12h 54m
Tomorrow will be 1m 44s shorter.
Waxing Crescent, 4% of the Moon is Illuminated
Today
Waxing Crescent
Sep 2
First Quarter
Sep 8
Full
Sep 15
Last Quarter
Sep 24
New

Today's Extremes

State Highs State Lows

Community

WunderPhotos

Upload Photos

1,747,724 photos uploaded!

Nearby

Air Quality

  Air Quality AQ Index Pollutant
Yesterday Good
OZONE
Yesterday Good
PM2.5
Current Good
PM2.5
Current Good
OZONE
Wednesday Good
OZONE
Wednesday Good
PM2.5
Thursday Good
OZONE
Thursday Good
PM2.5
Friday Good
OZONE
Friday Good
PM2.5

Snow Depth

Station Depth Elevation
No new snow has been reported.

Earthquake Activity

City Distance Mag. Time & Date
No recent earthquake activity has been reported nearby.
Minimum magnitude displayed is 2.5.

Coastal Water Temperatures

Place Temperature
No Stations Reporting

Nearby Weather Stations